Portada
METAR-TAF:

METAR-TAF

Aeroports :

Meriden-Markham Municipal Airport

Meriden, Connecticut, Estats Units d'Amèrica

latitud: 41-30-35N, longitud: 072-49-40W, altitud: 31 m

Observació

L'informe es va fer fa 41 minuts, a les 22:53 UTC
Vent 7 kt del Sud
Temperatura 18°C
Humitat 56%
Pressió 1024 hPa
Visibilitat: 16.1 km
Cel clar

METAR: KMMK 242253Z AUTO 18007KT 10SM CLR 18/09 A3023 RMK AO2 SLP235 T01780094

Hora: 19:34 (23:34 UTC)


TAF: manca

Observacions i pronòstics meteorològics de més de 4000 aeroports (METAR i TAF).

Les estacions disponibles són els punts grocs i vermells al mapa.

Posi el ratolí al punt desitjat per veure el nom de l'estació.

Feu clic per veure les observacions i els pronòstics meteorològics.

Per canviar el mapa: feu clic els botons verds amb una creu de color negre per apropar; al botó verd amb un guió per allunyar la imatge; o en les fletxes verdes per a mapes adjacents.


METAR-TAF: